Saint Helens, Oregon
Current Conditions -  °F | °C
As of 5:53 AM on Tuesday 21 Oct 2014 (Local Time) from KSPB Reporting Station
Broken Clouds Broken Clouds  
Wind Chill: 54°   Ceiling: 1700
Heat Index: 54°   Visibility: 10mi
Dew Point: 52°   Wind: 3mph
Humidity: 93%   Direction: 170°S
Pressure: 29.92"   Gusts: NA
Location:  45.86°N, 122.81°W
Report Text: KSPB 211253Z AUTO 17003KT 10SM BKN017 BKN055 12/11 A2992 RMK AO2 RAB14E37 SLP130 P0000 T01220111
Loading
Personal Weather Stations






























Interactive Weather Map
Tropical Storm Tracking
New forecast layout! Learn more

10-Day Weather Forecast

Advertisements
Track Severe Weather on mobile